createdAt,value
2023-06-12T00:01:51.150Z,3.20
2023-06-12T00:04:17.672Z,3.00
2023-06-12T00:06:45.651Z,2.42
2023-06-12T00:09:12.486Z,2.90
2023-06-12T00:11:41.553Z,2.70
2023-06-12T00:14:08.310Z,3.20
2023-06-12T00:16:34.971Z,2.83
2023-06-12T00:19:01.778Z,2.92
2023-06-12T00:21:28.220Z,3.10
2023-06-12T00:23:54.695Z,3.10
2023-06-12T00:26:21.211Z,2.80
2023-06-12T00:28:47.716Z,3.30
2023-06-12T00:31:14.196Z,2.72
2023-06-12T00:33:42.083Z,2.97
2023-06-12T00:36:08.542Z,3.05
2023-06-12T00:38:35.935Z,2.70
2023-06-12T00:41:02.581Z,2.97
2023-06-12T00:43:29.111Z,3.20
2023-06-12T00:45:56.298Z,3.30
2023-06-12T00:48:23.056Z,3.17
2023-06-12T00:50:49.667Z,3.00
2023-06-12T00:53:16.142Z,3.40
2023-06-12T00:55:42.575Z,2.92
2023-06-12T00:58:09.057Z,2.87
2023-06-12T01:00:39.436Z,2.60
2023-06-12T01:03:09.579Z,3.40
2023-06-12T01:05:39.482Z,3.22
2023-06-12T01:08:25.425Z,3.13
2023-06-12T01:10:55.313Z,3.10
2023-06-12T01:13:22.331Z,3.13
2023-06-12T01:15:49.437Z,3.00
2023-06-12T01:18:16.343Z,3.13
2023-06-12T01:20:43.267Z,3.35
2023-06-12T01:23:32.504Z,3.60
2023-06-12T01:26:11.053Z,3.33
2023-06-12T01:28:48.053Z,3.00
2023-06-12T01:31:44.358Z,3.10
2023-06-12T01:34:16.239Z,3.10
2023-06-12T01:36:49.889Z,2.90
2023-06-12T01:39:17.038Z,3.20
2023-06-12T01:41:44.805Z,2.92
2023-06-12T01:44:11.662Z,2.83
2023-06-12T01:46:38.938Z,2.88
2023-06-12T01:49:07.235Z,3.20
2023-06-12T01:51:34.093Z,3.00
2023-06-12T01:54:01.987Z,3.00
2023-06-12T01:56:28.763Z,3.08
2023-06-12T01:58:55.824Z,3.25
2023-06-12T02:01:24.930Z,2.80
2023-06-12T02:03:51.808Z,3.00
2023-06-12T02:06:18.437Z,3.00
2023-06-12T02:08:45.288Z,3.28
2023-06-12T02:11:11.855Z,2.80
2023-06-12T02:13:38.262Z,2.10
2023-06-12T02:16:07.392Z,3.15
2023-06-12T02:18:34.491Z,3.10
2023-06-12T02:21:01.008Z,2.80
2023-06-12T02:23:27.501Z,3.00
2023-06-12T02:25:53.903Z,2.93
2023-06-12T02:28:20.328Z,3.03
2023-06-12T02:30:46.737Z,2.83
2023-06-12T02:33:14.197Z,3.17
2023-06-12T02:35:41.031Z,3.03
2023-06-12T02:38:07.594Z,2.77
2023-06-12T02:40:34.127Z,3.25
2023-06-12T02:43:00.987Z,2.55
2023-06-12T02:45:27.605Z,3.00
2023-06-12T02:47:54.050Z,2.92
2023-06-12T02:50:20.522Z,2.50
2023-06-12T02:52:47.236Z,3.80
2023-06-12T02:55:13.699Z,3.67
2023-06-12T02:57:40.180Z,2.95
2023-06-12T03:00:07.445Z,3.50
2023-06-12T03:02:34.229Z,2.53
2023-06-12T03:05:00.798Z,3.90
2023-06-12T03:07:29.759Z,3.30
2023-06-12T03:09:56.307Z,2.53
2023-06-12T03:12:22.739Z,3.80
2023-06-12T03:14:50.549Z,3.23
2023-06-12T03:17:17.063Z,3.40
2023-06-12T03:19:45.658Z,3.90
2023-06-12T03:22:12.104Z,3.95
2023-06-12T03:24:38.636Z,3.63
2023-06-12T03:27:05.974Z,3.40
2023-06-12T03:29:32.518Z,3.67
2023-06-12T03:31:59.085Z,3.25
2023-06-12T03:34:25.825Z,3.95
2023-06-12T03:36:52.354Z,3.67
2023-06-12T03:39:18.833Z,3.20
2023-06-12T03:41:58.972Z,3.67
2023-06-12T03:44:25.800Z,3.35
2023-06-12T03:46:52.282Z,3.30
2023-06-12T03:49:18.740Z,4.53
2023-06-12T03:51:45.519Z,3.23
2023-06-12T03:54:12.773Z,3.03
2023-06-12T03:56:39.258Z,3.28
2023-06-12T03:59:06.177Z,3.53
2023-06-12T04:01:32.603Z,3.45
2023-06-12T04:03:59.223Z,3.13
2023-06-12T04:06:25.889Z,3.88
2023-06-12T04:08:55.191Z,3.30
2023-06-12T04:11:23.045Z,3.55
2023-06-12T04:13:49.507Z,3.50
2023-06-12T04:16:16.359Z,3.77
2023-06-12T04:18:43.757Z,3.83
2023-06-12T04:21:10.301Z,3.80
2023-06-12T04:23:38.482Z,3.70
2023-06-12T04:26:08.049Z,4.13
2023-06-12T04:28:36.676Z,3.80
2023-06-12T04:31:03.956Z,4.15
2023-06-12T04:33:31.469Z,3.90
2023-06-12T04:35:59.619Z,4.25
2023-06-12T04:38:26.414Z,4.85
2023-06-12T04:40:55.216Z,4.10
2023-06-12T04:43:22.525Z,4.40
2023-06-12T04:45:49.698Z,4.65
2023-06-12T04:48:16.434Z,4.75
2023-06-12T04:50:43.056Z,4.95
2023-06-12T04:53:09.704Z,5.53
2023-06-12T04:55:36.237Z,4.40
2023-06-12T04:58:03.233Z,4.78
2023-06-12T05:00:30.071Z,6.45
2023-06-12T05:02:56.949Z,5.00
2023-06-12T05:05:23.458Z,4.63
2023-06-12T05:07:49.898Z,4.78
2023-06-12T05:10:16.972Z,4.50
2023-06-12T05:12:43.681Z,5.05
2023-06-12T05:15:10.894Z,5.88
2023-06-12T05:17:38.674Z,5.13
2023-06-12T05:20:10.032Z,4.10
2023-06-12T05:22:37.452Z,4.50
2023-06-12T05:25:04.904Z,4.97
2023-06-12T05:27:31.515Z,4.85
2023-06-12T05:29:57.957Z,4.93
2023-06-12T05:32:24.465Z,4.85
2023-06-12T05:34:51.370Z,4.97
2023-06-12T05:37:18.018Z,5.00
2023-06-12T05:39:44.480Z,5.07
2023-06-12T05:42:11.319Z,5.57
2023-06-12T05:44:38.028Z,4.90
2023-06-12T05:47:04.618Z,4.55
2023-06-12T05:49:31.110Z,4.43
2023-06-12T05:51:57.739Z,5.10
2023-06-12T05:54:24.184Z,4.43
2023-06-12T05:56:50.579Z,5.07
2023-06-12T05:59:17.043Z,4.65
2023-06-12T06:01:43.508Z,5.18
2023-06-12T06:04:12.648Z,5.43
2023-06-12T06:06:39.777Z,4.90
2023-06-12T06:09:09.210Z,5.55
2023-06-12T06:11:35.815Z,5.63
2023-06-12T06:14:02.397Z,5.30
2023-06-12T06:16:36.889Z,5.10
2023-06-12T06:19:15.392Z,4.80
2023-06-12T06:21:41.975Z,5.15
2023-06-12T06:24:08.897Z,5.25
2023-06-12T06:26:35.439Z,5.95
2023-06-12T06:29:12.708Z,4.90
2023-06-12T06:31:41.218Z,4.30
2023-06-12T06:34:07.784Z,5.07
2023-06-12T06:36:34.311Z,5.40
2023-06-12T06:39:00.892Z,5.18
2023-06-12T06:41:28.017Z,5.25
2023-06-12T06:43:54.706Z,5.20
2023-06-12T06:46:21.268Z,5.07
2023-06-12T06:48:47.753Z,4.10
2023-06-12T06:51:16.648Z,4.68
2023-06-12T06:53:43.110Z,5.32
2023-06-12T06:56:09.689Z,5.77
2023-06-12T06:58:36.123Z,5.45
2023-06-12T07:01:02.650Z,5.38
2023-06-12T07:03:29.229Z,5.40
2023-06-12T07:05:55.852Z,4.88
2023-06-12T07:08:22.340Z,5.40
2023-06-12T07:10:48.765Z,5.90
2023-06-12T07:13:15.499Z,5.00
2023-06-12T07:15:42.060Z,5.60
2023-06-12T07:18:08.682Z,5.18
2023-06-12T07:20:35.248Z,5.93
2023-06-12T07:23:01.728Z,5.28
2023-06-12T07:25:28.627Z,6.53
2023-06-12T07:27:55.100Z,5.43
2023-06-12T07:30:21.628Z,5.20
2023-06-12T07:32:48.115Z,5.23
2023-06-12T07:35:15.976Z,4.50
2023-06-12T07:37:44.072Z,6.00
2023-06-12T07:40:11.169Z,5.53
2023-06-12T07:42:37.732Z,6.25
2023-06-12T07:45:04.971Z,5.50
2023-06-12T07:47:31.610Z,5.15
2023-06-12T07:49:59.610Z,4.80
2023-06-12T07:52:26.208Z,5.43
2023-06-12T07:54:53.020Z,5.15
2023-06-12T07:57:19.469Z,6.87
2023-06-12T07:59:47.607Z,5.93
2023-06-12T08:02:16.016Z,4.90
2023-06-12T08:04:43.809Z,5.00
2023-06-12T08:07:12.679Z,4.90
2023-06-12T08:09:41.418Z,5.10
2023-06-12T08:12:08.721Z,5.18
2023-06-12T08:14:35.252Z,5.05
2023-06-12T08:17:01.763Z,5.22
2023-06-12T08:19:29.636Z,5.82
2023-06-12T08:21:56.501Z,5.43
2023-06-12T08:24:23.399Z,4.47
2023-06-12T08:26:50.172Z,4.30
2023-06-12T08:29:16.939Z,4.57
2023-06-12T08:31:43.472Z,4.72
2023-06-12T08:34:09.899Z,4.73
2023-06-12T08:36:37.922Z,4.95
2023-06-12T08:39:04.901Z,4.82
2023-06-12T08:41:37.070Z,4.75
2023-06-12T08:44:03.741Z,4.70
2023-06-12T08:46:31.965Z,4.50
2023-06-12T08:49:02.040Z,5.18
2023-06-12T08:51:29.992Z,5.10
2023-06-12T08:53:57.736Z,3.80
2023-06-12T08:56:25.346Z,4.25
2023-06-12T08:58:51.849Z,3.53
2023-06-12T09:01:19.319Z,3.88
2023-06-12T09:03:51.296Z,4.05
2023-06-12T09:06:20.045Z,3.30
2023-06-12T09:08:46.773Z,4.22
2023-06-12T09:11:13.419Z,4.30
2023-06-12T09:13:42.187Z,3.50
2023-06-12T09:16:17.750Z,4.72
2023-06-12T09:18:52.497Z,3.42
2023-06-12T09:21:22.283Z,3.60
2023-06-12T09:23:53.650Z,4.17
2023-06-12T09:26:23.114Z,3.92
2023-06-12T09:28:53.911Z,3.60
2023-06-12T09:31:21.068Z,3.25
2023-06-12T09:33:51.479Z,3.45
2023-06-12T09:36:20.475Z,4.13
2023-06-12T09:38:48.618Z,4.18
2023-06-12T09:41:15.132Z,4.35
2023-06-12T09:43:41.593Z,4.65
2023-06-12T09:46:09.654Z,3.90
2023-06-12T09:51:22.627Z,5.05
2023-06-12T09:53:52.000Z,4.30
2023-06-12T09:56:18.841Z,3.70
2023-06-12T09:58:49.062Z,3.65
2023-06-12T10:01:19.026Z,4.03
2023-06-12T10:03:49.143Z,4.13
2023-06-12T10:06:18.333Z,4.60
2023-06-12T10:08:45.140Z,3.53
2023-06-12T10:11:13.472Z,3.28
2023-06-12T10:13:40.540Z,2.87
2023-06-12T10:16:08.085Z,3.97
2023-06-12T10:18:35.407Z,4.10
2023-06-12T10:21:03.947Z,3.88
2023-06-12T10:23:34.503Z,3.47
2023-06-12T10:26:02.783Z,3.90
2023-06-12T10:28:29.651Z,4.32
2023-06-12T10:31:13.309Z,4.13
2023-06-12T10:33:57.018Z,3.78
2023-06-12T10:36:24.198Z,4.18
2023-06-12T10:39:02.965Z,4.20
2023-06-12T10:41:36.673Z,3.22
2023-06-12T10:44:32.261Z,4.65
2023-06-12T10:47:02.514Z,4.18
2023-06-12T10:49:29.379Z,4.10
2023-06-12T10:51:56.077Z,4.63
2023-06-12T10:54:27.130Z,4.28
2023-06-12T10:57:04.216Z,4.65
2023-06-12T10:59:39.902Z,4.00
2023-06-12T11:02:06.524Z,4.53
2023-06-12T11:04:38.606Z,4.10
2023-06-12T11:07:06.041Z,4.75
2023-06-12T11:09:42.281Z,5.65
2023-06-12T11:12:09.218Z,3.85
2023-06-12T11:14:35.740Z,3.90
2023-06-12T11:17:02.395Z,3.57
2023-06-12T11:19:29.640Z,3.45
2023-06-12T11:21:57.006Z,3.83
2023-06-12T11:24:24.506Z,4.18
2023-06-12T11:26:52.005Z,3.70
2023-06-12T11:29:21.243Z,3.57
2023-06-12T11:31:52.120Z,3.72
2023-06-12T11:34:18.599Z,3.30
2023-06-12T11:36:45.162Z,2.80
2023-06-12T11:41:50.655Z,3.77
2023-06-12T11:44:17.711Z,3.72
2023-06-12T11:46:45.135Z,3.40
2023-06-12T11:49:14.067Z,3.13
2023-06-12T11:51:40.932Z,3.38
2023-06-12T11:54:08.928Z,3.13
2023-06-12T11:59:04.876Z,3.10
2023-06-12T12:01:37.776Z,3.10
2023-06-12T12:04:06.201Z,3.15
2023-06-12T12:06:49.194Z,3.50
2023-06-12T12:09:16.030Z,3.55
2023-06-12T12:11:42.621Z,3.92
2023-06-12T12:14:09.201Z,3.58
2023-06-12T12:16:41.223Z,3.33
2023-06-12T12:19:27.442Z,3.50
2023-06-12T12:21:56.300Z,4.10
2023-06-12T12:24:23.172Z,3.17
2023-06-12T12:26:52.361Z,3.67
2023-06-12T12:29:19.598Z,3.10
2023-06-12T12:31:46.576Z,3.70
2023-06-12T12:34:13.404Z,3.65
2023-06-12T12:36:41.672Z,3.60
2023-06-12T12:39:08.246Z,3.63
2023-06-12T12:41:36.439Z,3.85
2023-06-12T12:44:02.943Z,2.60
2023-06-12T12:46:29.757Z,3.30
2023-06-12T12:48:56.315Z,3.00
2023-06-12T12:51:22.822Z,3.72
2023-06-12T12:53:49.246Z,3.92
2023-06-12T12:56:15.721Z,3.77
2023-06-12T12:58:43.788Z,3.70
2023-06-12T13:01:10.985Z,4.10
2023-06-12T13:03:39.526Z,3.40
2023-06-12T13:06:11.798Z,3.88
2023-06-12T13:08:39.011Z,4.23
2023-06-12T13:11:05.517Z,5.45
2023-06-12T13:13:33.390Z,4.38
2023-06-12T13:16:00.327Z,4.22
2023-06-12T13:18:26.897Z,3.70
2023-06-12T13:20:54.666Z,4.60
2023-06-12T13:23:21.622Z,3.83
2023-06-12T13:25:48.085Z,4.43
2023-06-12T13:28:14.759Z,3.60
2023-06-12T13:30:41.177Z,4.03
2023-06-12T13:33:07.791Z,4.30
2023-06-12T13:35:36.765Z,5.20
2023-06-12T13:38:04.809Z,4.25
2023-06-12T13:40:31.362Z,4.18
2023-06-12T13:42:57.812Z,3.95
2023-06-12T13:45:24.643Z,3.90
2023-06-12T13:47:51.121Z,4.47
2023-06-12T13:50:17.612Z,4.13
2023-06-12T13:52:46.036Z,4.40
2023-06-12T13:55:12.453Z,4.05
2023-06-12T13:57:40.192Z,3.50
2023-06-12T14:00:08.868Z,3.88
2023-06-12T14:02:35.456Z,4.13
2023-06-12T14:05:02.432Z,4.57
2023-06-12T14:07:29.366Z,4.25
2023-06-12T14:09:55.869Z,4.40
2023-06-12T14:12:24.070Z,4.15
2023-06-12T14:14:50.592Z,4.72
2023-06-12T14:17:18.305Z,4.20
2023-06-12T14:19:45.010Z,4.05
2023-06-12T14:22:13.342Z,4.03
2023-06-12T14:24:41.219Z,4.22
2023-06-12T14:27:08.327Z,4.20
2023-06-12T14:29:35.092Z,4.40
2023-06-12T14:32:01.595Z,4.28
2023-06-12T14:34:28.171Z,4.67
2023-06-12T14:36:54.643Z,5.00
2023-06-12T14:39:21.195Z,5.03
2023-06-12T14:41:47.732Z,4.45
2023-06-12T14:44:16.277Z,4.05
2023-06-12T14:46:43.208Z,3.73
2023-06-12T14:49:09.931Z,3.90
2023-06-12T14:51:36.431Z,4.32
2023-06-12T14:54:02.902Z,4.00
2023-06-12T14:56:29.757Z,4.32
2023-06-12T14:58:56.402Z,4.10
2023-06-12T15:01:23.019Z,4.10
2023-06-12T15:03:51.232Z,3.70
2023-06-12T15:06:17.896Z,3.78
2023-06-12T15:08:46.733Z,5.13
2023-06-12T15:11:13.566Z,5.00
2023-06-12T15:13:39.999Z,4.32
2023-06-12T15:16:06.706Z,4.57
2023-06-12T15:18:44.136Z,4.10
2023-06-12T15:21:11.463Z,3.75
2023-06-12T15:23:38.038Z,3.53
2023-06-12T15:26:04.643Z,3.97
2023-06-12T15:28:33.145Z,3.75
2023-06-12T15:30:59.887Z,4.35
2023-06-12T15:33:26.375Z,4.32
2023-06-12T15:35:52.801Z,3.60
2023-06-12T15:38:34.397Z,4.50
2023-06-12T15:41:01.867Z,4.20
2023-06-12T15:43:28.547Z,4.00
2023-06-12T15:45:57.141Z,3.75
2023-06-12T15:48:24.107Z,4.40
2023-06-12T15:50:50.630Z,4.50
2023-06-12T15:53:17.106Z,3.45
2023-06-12T15:55:43.723Z,4.78
2023-06-12T15:58:10.700Z,4.70
2023-06-12T16:00:37.215Z,3.73
2023-06-12T16:03:04.098Z,4.20
2023-06-12T16:05:30.554Z,4.13
2023-06-12T16:07:57.012Z,4.03
2023-06-12T16:10:26.181Z,4.20
2023-06-12T16:12:55.785Z,4.33
2023-06-12T16:15:22.231Z,4.30
2023-06-12T16:17:48.945Z,4.85
2023-06-12T16:20:15.716Z,4.25
2023-06-12T16:22:42.115Z,4.55
2023-06-12T16:25:09.054Z,4.90
2023-06-12T16:27:35.516Z,4.95
2023-06-12T16:30:02.624Z,5.28
2023-06-12T16:32:29.204Z,4.10
2023-06-12T16:34:55.795Z,4.97
2023-06-12T16:37:23.637Z,4.20
2023-06-12T16:40:10.946Z,3.88
2023-06-12T16:42:38.670Z,4.40
2023-06-12T16:45:08.872Z,4.25
2023-06-12T16:47:36.545Z,5.22
2023-06-12T16:50:03.591Z,4.43
2023-06-12T16:52:30.058Z,4.82
2023-06-12T16:54:56.758Z,4.53
2023-06-12T16:57:23.288Z,4.85
2023-06-12T16:59:50.019Z,5.00
2023-06-12T17:02:18.576Z,4.37
2023-06-12T17:04:46.223Z,4.60
2023-06-12T17:07:13.318Z,5.38
2023-06-12T17:09:40.836Z,4.60
2023-06-12T17:12:08.182Z,4.40
2023-06-12T17:14:36.408Z,4.73
2023-06-12T17:17:04.409Z,4.68
2023-06-12T17:19:31.035Z,5.80
2023-06-12T17:21:58.558Z,4.70
2023-06-12T17:24:25.378Z,5.60
2023-06-12T17:26:52.075Z,5.50
2023-06-12T17:29:18.651Z,5.97
2023-06-12T17:31:45.083Z,5.45
2023-06-12T17:34:11.602Z,5.70
2023-06-12T17:36:38.328Z,4.95
2023-06-12T17:39:04.733Z,4.70
2023-06-12T17:41:31.825Z,4.50
2023-06-12T17:43:58.362Z,5.13
2023-06-12T17:46:24.835Z,4.50
2023-06-12T17:48:51.403Z,4.78
2023-06-12T17:51:18.049Z,4.73
2023-06-12T17:53:44.557Z,4.75
2023-06-12T17:56:13.192Z,5.00
2023-06-12T17:58:40.841Z,5.07
2023-06-12T18:01:07.815Z,5.20
2023-06-12T18:03:34.306Z,5.00
2023-06-12T18:06:00.820Z,5.45
2023-06-12T18:08:27.738Z,5.07
2023-06-12T18:10:58.904Z,5.85
2023-06-12T18:13:25.298Z,5.03
2023-06-12T18:15:51.860Z,5.20
2023-06-12T18:18:18.455Z,6.45
2023-06-12T18:20:44.969Z,4.95
2023-06-12T18:23:11.424Z,5.60
2023-06-12T18:25:37.855Z,5.43
2023-06-12T18:28:04.389Z,4.83
2023-06-12T18:30:30.963Z,4.80
2023-06-12T18:32:59.153Z,4.55
2023-06-12T18:35:26.204Z,4.72
2023-06-12T18:37:53.926Z,4.18
2023-06-12T18:40:21.176Z,4.63
2023-06-12T18:42:47.584Z,4.80
2023-06-12T18:45:14.305Z,5.18
2023-06-12T18:47:41.462Z,4.57
2023-06-12T18:50:08.162Z,4.78
2023-06-12T18:52:35.951Z,4.83
2023-06-12T18:55:04.582Z,4.53
2023-06-12T18:57:31.310Z,4.78
2023-06-12T18:59:57.737Z,4.78
2023-06-12T19:02:25.859Z,4.63
2023-06-12T19:04:52.337Z,4.90
2023-06-12T19:07:18.890Z,4.95
2023-06-12T19:09:45.573Z,4.63
2023-06-12T19:12:12.046Z,5.28
2023-06-12T19:14:38.558Z,4.28
2023-06-12T19:17:06.172Z,5.00
2023-06-12T19:19:32.678Z,4.55
2023-06-12T19:21:59.348Z,5.57
2023-06-12T19:24:26.103Z,4.03
2023-06-12T19:26:52.571Z,4.63
2023-06-12T19:29:19.002Z,4.80
2023-06-12T19:31:45.508Z,3.60
2023-06-12T19:34:12.047Z,4.55
2023-06-12T19:36:38.548Z,4.15
2023-06-12T19:39:05.243Z,4.85
2023-06-12T19:41:32.508Z,4.63
2023-06-12T19:43:58.936Z,4.68
2023-06-12T19:46:27.584Z,5.05
2023-06-12T19:48:54.295Z,5.18
2023-06-12T19:51:21.765Z,4.70
2023-06-12T19:53:48.465Z,4.93
2023-06-12T19:56:14.944Z,4.70
2023-06-12T19:58:41.374Z,4.85
2023-06-12T20:01:07.814Z,4.53
2023-06-12T20:03:34.273Z,5.07
2023-06-12T20:06:01.361Z,4.73
2023-06-12T20:08:28.378Z,4.38
2023-06-12T20:10:54.796Z,4.57
2023-06-12T20:13:21.258Z,4.95
2023-06-12T20:15:47.763Z,5.32
2023-06-12T20:18:14.588Z,4.43
2023-06-12T20:20:41.133Z,5.20
2023-06-12T20:23:10.062Z,4.28
2023-06-12T20:25:36.789Z,4.43
2023-06-12T20:28:03.890Z,4.68
2023-06-12T20:30:30.677Z,4.63
2023-06-12T20:32:57.328Z,4.38
2023-06-12T20:35:24.319Z,5.78
2023-06-12T20:37:50.773Z,4.28
2023-06-12T20:40:17.393Z,4.55
2023-06-12T20:42:43.892Z,4.00
2023-06-12T20:45:11.022Z,4.20
2023-06-12T20:47:37.680Z,4.18
2023-06-12T20:50:04.280Z,4.10
2023-06-12T20:52:30.939Z,3.90
2023-06-12T20:54:57.572Z,3.80
2023-06-12T20:57:24.000Z,4.07
2023-06-12T20:59:51.317Z,4.03
2023-06-12T21:02:17.909Z,4.00
2023-06-12T21:04:44.372Z,4.05
2023-06-12T21:07:11.190Z,3.83
2023-06-12T21:09:37.564Z,3.70
2023-06-12T21:12:04.328Z,3.28
2023-06-12T21:14:30.976Z,3.75
2023-06-12T21:16:57.399Z,3.65
2023-06-12T21:19:23.851Z,3.63
2023-06-12T21:21:50.408Z,3.65
2023-06-12T21:24:17.534Z,3.72
2023-06-12T21:26:44.994Z,3.42
2023-06-12T21:29:11.740Z,3.78
2023-06-12T21:31:38.593Z,3.40
2023-06-12T21:34:05.129Z,3.80
2023-06-12T21:36:34.065Z,3.55
2023-06-12T21:39:01.094Z,2.55
2023-06-12T21:41:27.718Z,3.15
2023-06-12T21:43:54.879Z,3.17
2023-06-12T21:46:21.756Z,3.30
2023-06-12T21:48:48.229Z,3.50
2023-06-12T21:51:14.850Z,3.05
2023-06-12T21:53:41.325Z,2.92
2023-06-12T21:56:07.837Z,3.10
2023-06-12T21:58:34.503Z,3.15
2023-06-12T22:01:01.305Z,3.33
2023-06-12T22:03:29.005Z,3.58
2023-06-12T22:05:57.626Z,3.20
2023-06-12T22:08:25.398Z,2.80
2023-06-12T22:10:51.891Z,2.92
2023-06-12T22:13:18.601Z,3.05
2023-06-12T22:15:45.135Z,3.40
2023-06-12T22:18:11.827Z,3.00
2023-06-12T22:20:41.623Z,3.27
2023-06-12T22:23:09.636Z,3.30
2023-06-12T22:25:36.475Z,2.78
2023-06-12T22:28:03.235Z,2.97
2023-06-12T22:30:30.378Z,3.30
2023-06-12T22:32:56.971Z,2.63
2023-06-12T22:35:23.539Z,3.22
2023-06-12T22:37:51.203Z,2.78
2023-06-12T22:40:17.764Z,3.33
2023-06-12T22:42:47.152Z,3.00
2023-06-12T22:45:13.819Z,2.83
2023-06-12T22:47:41.146Z,2.67
2023-06-12T22:50:07.812Z,2.80
2023-06-12T22:52:34.554Z,3.28
2023-06-12T22:55:01.189Z,3.10
2023-06-12T22:57:27.640Z,2.80
2023-06-12T22:59:54.086Z,3.30
2023-06-12T23:02:20.609Z,2.67
2023-06-12T23:04:47.206Z,2.83
2023-06-12T23:07:13.715Z,2.75
2023-06-12T23:09:40.539Z,3.10
2023-06-12T23:12:08.216Z,2.60
2023-06-12T23:14:34.722Z,3.00
2023-06-12T23:17:02.656Z,3.35
2023-06-12T23:19:32.529Z,2.80
2023-06-12T23:22:00.201Z,2.73
2023-06-12T23:24:28.958Z,2.95
2023-06-12T23:26:56.975Z,2.50
2023-06-12T23:29:23.461Z,2.60
2023-06-12T23:31:49.892Z,2.80
2023-06-12T23:34:16.409Z,3.03
2023-06-12T23:36:43.009Z,3.08
2023-06-12T23:39:10.548Z,2.83
2023-06-12T23:41:38.022Z,2.65
2023-06-12T23:44:04.724Z,3.10
2023-06-12T23:46:31.246Z,2.87
2023-06-12T23:48:57.791Z,2.25
2023-06-12T23:51:24.237Z,2.30
2023-06-12T23:53:50.925Z,2.40
2023-06-12T23:56:21.152Z,2.78
2023-06-12T23:58:48.098Z,2.67
